شیراز, ایران

05:04 AM IRST on فوریه 22, 2017 (GMT +0330)
Shahid Dastghaib International | | Change Station

Elev 4875 ft 29.53 °N, 52.58 °E | Updated 34 minutes ago

صاف
صاف
43 °F
Feels Like 40 °F
N
5
باد متغير باد from غرب

امروز
High -- | Low -- °F
--% Chance of Precip.
دیروز
High -- | Low -- °F
Precip. -- در
فشار 30.04 در
ديد -9999.0 مايل، ميل (در برابر كيلومتر
ابری
باد سرد 40 °F
قطره شبنم 16 °F
رطوبت 34%
بارش باران 0.00 در
برف عمیق Not available.
6:32 AM 5:54 PM
Waning Crescent, 21% visible
METAR OISS 220100Z 28004KT CAVOK 06/M09 Q1017 A3004
فشار 30.04 در
ديد -9999.0 مايل، ميل (در برابر كيلومتر
ابری
باد سرد 40 °F
قطره شبنم 16 °F
رطوبت 34%
بارش باران 0.00 در
برف عمیق Not available.
6:32 AM 5:54 PM
Waning Crescent, 21% visible
METAR OISS 220100Z 28004KT CAVOK 06/M09 Q1017 A3004

Get Your Daily Forecast Email!

Thanks for signing up!

Be on the lookout for a verification email in your inbox.

You'll start receiving the daily forecast at 8 AM.

×

10-Day Weather Forecast

No radar image for this location.
×

Almanac

ستاره شناسی

Feb. 22, 2017 Rise Set
وقت حقیقی
تاریک و روشن اجتماعی
تاریک روشن دریایی
شفق و فلق نجومی
ماه
میزان روشنایی روز
طول روز
Tomorrow will be .
, % of the Moon is Illuminated

Today's Extremes

Country Highs Country Lows

Community

WunderPhotos

Upload Photos

1,962,540 photos uploaded!

WunderBlog® & News

Nearby

تمیزی هوا

  تمیزی هوا AQ Index آلاینده
Not available.

عمق برف

Station Depth Elevation

Earthquake Activity

شهر Distance Mag. Time & Date
Minimum magnitude displayed is 2.5.

Coastal Water Temperatures

منطقه درجه حرارت

Stations

Nearby Weather Stations

Station Location دما باد سرد قطره شبنم رطوبت باد Precip. Elev ارتقا دادن Type